Time;durP1;ratioP1;P1;durP2;ratioP2;P2;SDS_P1;SDS_P2;PMS_P1;PMS_P2;Temp;Humidity;BMP_temperature;BMP_pressure;BME280_temperature;BME280_humidity;BME280_pressure;Samples;Min_cycle;Max_cycle;Signal;HPM_P1;HPM_P2
2022/12/07 00:01:04;;;;;;;13.70;12.20;;;;;;;3.15;100.00;96768.75;5032920;28;20213;-62
2022/12/07 00:03:29;;;;;;;13.93;12.63;;;;;;;2.82;100.00;96770.91;5031682;28;20591;-62
2022/12/07 00:05:57;;;;;;;12.77;11.57;;;;;;;2.80;100.00;96766.88;5032291;28;20178;-61
2022/12/07 00:08:23;;;;;;;11.90;10.67;;;;;;;2.83;100.00;96769.94;5032995;28;20194;-61
2022/12/07 00:10:48;;;;;;;12.27;11.07;;;;;;;2.89;100.00;96771.03;5032792;28;20163;-61
2022/12/07 00:13:13;;;;;;;13.03;11.83;;;;;;;2.81;100.00;96764.13;5032803;28;20167;-61
2022/12/07 00:15:39;;;;;;;12.33;11.13;;;;;;;2.95;100.00;96766.91;5032222;28;20174;-62
2022/12/07 00:18:04;;;;;;;12.67;11.37;;;;;;;2.81;100.00;96771.91;5024334;28;20683;-61
2022/12/07 00:20:30;;;;;;;12.87;11.67;;;;;;;2.66;100.00;96765.13;5032755;28;20205;-61
2022/12/07 00:22:56;;;;;;;12.20;11.00;;;;;;;2.88;100.00;96766.81;5032547;28;20261;-61
2022/12/07 00:25:21;;;;;;;12.17;10.97;;;;;;;2.81;100.00;96771.09;5032736;28;20726;-62
2022/12/07 00:27:47;;;;;;;13.20;11.93;;;;;;;2.82;100.00;96762.34;5032166;28;20207;-61
2022/12/07 00:30:12;;;;;;;13.10;11.43;;;;;;;2.91;100.00;96767.25;5032744;28;20193;-62
2022/12/07 00:32:38;;;;;;;14.43;13.07;;;;;;;2.85;100.00;96767.97;5032401;28;20185;-60
2022/12/07 00:35:03;;;;;;;12.80;11.50;;;;;;;2.82;100.00;96765.75;5032783;28;20253;-61
2022/12/07 00:37:29;;;;;;;13.03;11.73;;;;;;;2.84;100.00;96765.56;5052069;28;20244;-59
2022/12/07 00:39:54;;;;;;;12.87;11.67;;;;;;;2.77;100.00;96762.09;5052300;28;20177;-60
2022/12/07 00:42:19;;;;;;;12.53;11.23;;;;;;;2.78;100.00;96761.91;5052696;28;20243;-61
2022/12/07 00:44:45;;;;;;;13.23;11.93;;;;;;;2.73;100.00;96764.22;5052022;28;20172;-61
2022/12/07 00:47:10;;;;;;;13.30;11.67;;;;;;;2.71;100.00;96767.97;5051669;28;20205;-61
2022/12/07 00:49:36;;;;;;;13.53;12.23;;;;;;;2.78;100.00;96764.50;5050216;28;20189;-62
2022/12/07 00:52:01;;;;;;;14.53;13.03;;;;;;;2.86;100.00;96761.00;5052058;28;20256;-61
2022/12/07 00:54:26;;;;;;;12.80;11.50;;;;;;;2.83;100.00;96762.19;5052310;28;20658;-62
2022/12/07 00:56:52;;;;;;;14.67;13.13;;;;;;;2.85;100.00;96762.78;5051868;28;20639;-62
2022/12/07 00:59:17;;;;;;;14.97;13.47;;;;;;;2.74;100.00;96759.84;5051852;28;20204;-62
2022/12/07 01:01:42;;;;;;;13.47;12.07;;;;;;;2.82;100.00;96759.75;5051617;28;20201;-61
2022/12/07 01:04:08;;;;;;;12.97;11.63;;;;;;;2.75;100.00;96764.84;5051786;28;20206;-62
2022/12/07 01:06:34;;;;;;;12.30;11.00;;;;;;;2.87;100.00;96765.22;5052195;28;20185;-62
2022/12/07 01:09:00;;;;;;;12.73;11.40;;;;;;;2.86;100.00;96761.81;5052028;28;20564;-62
2022/12/07 01:11:28;;;;;;;13.90;10.50;;;;;;;2.73;100.00;96766.78;5052738;28;20166;-62
2022/12/07 01:13:56;;;;;;;13.70;12.30;;;;;;;2.65;100.00;96766.91;5052300;28;20245;-62
2022/12/07 01:16:23;;;;;;;14.40;12.23;;;;;;;2.61;100.00;96760.47;5044753;28;20204;-59
2022/12/07 01:18:51;;;;;;;14.30;12.70;;;;;;;2.66;100.00;96767.69;5051779;28;20197;-62
2022/12/07 01:21:20;;;;;;;14.90;13.30;;;;;;;2.72;100.00;96764.41;5051478;28;20185;-62
2022/12/07 01:23:46;;;;;;;13.73;12.03;;;;;;;2.72;100.00;96759.22;5049698;28;20188;-61
2022/12/07 01:26:14;;;;;;;12.80;11.03;;;;;;;2.54;100.00;96769.13;5052433;28;20182;-61
2022/12/07 01:28:39;;;;;;;14.43;12.10;;;;;;;2.78;100.00;96774.06;5055709;28;20198;-59
2022/12/07 01:31:16;;;;;;;15.17;12.47;;;;;;;2.54;100.00;96771.69;5056099;28;20178;-60
2022/12/07 01:33:47;;;;;;;14.80;12.40;;;;;;;2.67;100.00;96775.28;5054663;28;20170;-61
2022/12/07 01:36:17;;;;;;;14.80;12.60;;;;;;;2.41;100.00;96773.09;5040518;28;20230;-60
2022/12/07 01:38:44;;;;;;;13.47;12.07;;;;;;;2.52;100.00;96774.44;5035863;28;20234;-61
2022/12/07 01:41:10;;;;;;;13.23;11.70;;;;;;;2.60;100.00;96774.38;5035636;28;20255;-61
2022/12/07 01:43:35;;;;;;;13.83;12.30;;;;;;;2.62;100.00;96777.59;5035793;28;20261;-59
2022/12/07 01:46:02;;;;;;;14.53;12.67;;;;;;;2.49;100.00;96785.97;5034628;28;20266;-61
2022/12/07 01:48:39;;;;;;;14.17;12.67;;;;;;;2.52;100.00;96784.81;5034144;28;20198;-61
2022/12/07 01:51:10;;;;;;;13.80;11.43;;;;;;;2.53;100.00;96781.25;5028102;28;20590;-59
2022/12/07 01:53:39;;;;;;;15.30;12.17;;;;;;;2.47;100.00;96772.41;5035500;28;20219;-61
2022/12/07 01:56:08;;;;;;;14.60;13.00;;;;;;;2.51;100.00;96780.59;5027812;28;20208;-61
2022/12/07 01:58:34;;;;;;;14.47;12.67;;;;;;;2.61;100.00;96775.19;5035030;28;20202;-61
2022/12/07 02:01:00;;;;;;;14.83;12.77;;;;;;;2.56;100.00;96780.91;5035517;28;20175;-59
2022/12/07 02:03:37;;;;;;;15.13;13.40;;;;;;;2.56;100.00;96778.31;5035058;28;20224;-58
2022/12/07 02:06:05;;;;;;;16.07;13.03;;;;;;;2.60;100.00;96771.00;5016783;28;20193;-59
2022/12/07 02:08:31;;;;;;;14.87;13.07;;;;;;;2.66;100.00;96781.44;5035300;28;20210;-59
2022/12/07 02:10:56;;;;;;;13.83;12.00;;;;;;;2.54;100.00;96777.69;5017499;28;20182;-59
2022/12/07 02:13:26;;;;;;;15.73;12.77;;;;;;;2.57;100.00;96781.69;5034979;28;20313;-60
2022/12/07 02:15:59;;;;;;;14.53;12.27;;;;;;;2.54;100.00;96782.03;5034978;28;20214;-60
2022/12/07 02:18:43;;;;;;;14.77;12.63;;;;;;;2.65;100.00;96773.84;5035112;28;20241;-60
2022/12/07 02:21:14;;;;;;;15.67;12.83;;;;;;;2.63;100.00;96776.59;5034423;28;20182;-58
2022/12/07 02:24:00;;;;;;;13.87;12.00;;;;;;;2.57;100.00;96779.09;5034772;28;20183;-58
2022/12/07 02:26:57;;;;;;;15.63;13.60;;;;;;;2.65;100.00;96768.69;5034673;28;20237;-59
2022/12/07 02:29:26;;;;;;;14.40;11.77;;;;;;;2.60;100.00;96764.03;5034247;28;20218;-59
2022/12/07 02:32:04;;;;;;;15.63;12.50;;;;;;;2.55;100.00;96762.97;5034757;28;20187;-59
2022/12/07 02:34:37;;;;;;;15.93;12.30;;;;;;;2.60;100.00;96761.44;5034566;28;20193;-58
2022/12/07 02:37:12;;;;;;;14.33;11.47;;;;;;;2.43;100.00;96762.59;5051919;28;20230;-59
2022/12/07 02:39:45;;;;;;;15.97;14.47;;;;;;;2.51;100.00;96762.50;5054075;28;20213;-59
2022/12/07 02:42:20;;;;;;;14.13;12.63;;;;;;;2.57;100.00;96759.19;5054223;28;20260;-60
2022/12/07 02:44:46;;;;;;;14.70;13.10;;;;;;;2.51;100.00;96750.38;5054120;28;20174;-57
2022/12/07 02:47:16;;;;;;;14.77;13.30;;;;;;;2.60;100.00;96758.06;5052166;28;20210;-59
2022/12/07 02:49:42;;;;;;;15.07;12.50;;;;;;;2.60;100.00;96760.66;5054430;28;20533;-60
2022/12/07 02:52:08;;;;;;;14.03;11.20;;;;;;;2.54;100.00;96756.19;5054530;28;20182;-60
2022/12/07 02:54:34;;;;;;;16.20;12.27;;;;;;;2.60;100.00;96753.69;5054330;28;20170;-60
2022/12/07 02:57:31;;;;;;;13.97;11.70;;;;;;;2.67;100.00;96751.19;5054056;28;20173;-58
2022/12/07 03:00:05;;;;;;;13.87;11.60;;;;;;;2.71;100.00;96749.84;5053898;28;20189;-60
2022/12/07 03:02:55;;;;;;;14.07;12.10;;;;;;;2.66;100.00;96754.75;5053532;28;20177;-60
2022/12/07 03:05:45;;;;;;;13.37;11.77;;;;;;;2.57;100.00;96745.47;5053581;28;20225;-61
2022/12/07 03:08:25;;;;;;;13.27;11.73;;;;;;;2.66;100.00;96742.63;5054061;28;20213;-61
2022/12/07 03:10:55;;;;;;;13.27;11.73;;;;;;;2.77;100.00;96738.78;5054098;28;20174;-60
2022/12/07 03:13:50;;;;;;;14.43;11.87;;;;;;;2.75;100.00;96745.94;5036034;28;20181;-60
2022/12/07 03:16:30;;;;;;;12.97;10.63;;;;;;;2.70;100.00;96743.06;5040724;28;20200;-60
2022/12/07 03:19:01;;;;;;;14.90;11.30;;;;;;;2.64;100.00;96742.00;5053582;28;20880;-61
2022/12/07 03:21:35;;;;;;;13.77;11.00;;;;;;;2.70;100.00;96738.69;5053698;28;20173;-61
2022/12/07 03:24:06;;;;;;;12.33;9.73;;;;;;;2.55;100.00;96742.28;5053057;28;20177;-60
2022/12/07 03:26:35;;;;;;;13.30;11.03;;;;;;;2.66;100.00;96729.69;5053309;28;20479;-60
2022/12/07 03:29:07;;;;;;;13.27;11.17;;;;;;;2.62;100.00;96736.19;5053395;28;20228;-61
2022/12/07 03:31:39;;;;;;;11.70;10.47;;;;;;;2.58;100.00;96740.13;5053242;28;20195;-61
2022/12/07 03:34:28;;;;;;;12.80;10.30;;;;;;;2.64;100.00;96734.25;5053279;28;20182;-61
2022/12/07 03:36:57;;;;;;;12.53;10.67;;;;;;;2.56;100.00;96736.94;5050568;28;20750;-60
2022/12/07 03:39:28;;;;;;;11.17;10.07;;;;;;;2.57;100.00;96735.13;5053298;28;20205;-61
2022/12/07 03:41:55;;;;;;;12.27;10.97;;;;;;;2.60;100.00;96734.78;5053622;28;20178;-60
2022/12/07 03:44:22;;;;;;;13.83;11.43;;;;;;;2.58;100.00;96728.97;5045478;28;20721;-60
2022/12/07 03:46:57;;;;;;;14.70;11.53;;;;;;;2.73;100.00;96724.63;5051398;28;20280;-61
2022/12/07 03:49:33;;;;;;;11.73;10.53;;;;;;;2.69;100.00;96726.75;5052883;28;20645;-60
2022/12/07 03:52:25;;;;;;;13.07;11.07;;;;;;;2.66;100.00;96728.88;5053055;28;20169;-61
2022/12/07 03:55:00;;;;;;;12.80;11.50;;;;;;;2.51;100.00;96731.44;5053395;28;20253;-60
2022/12/07 03:57:28;;;;;;;12.23;10.70;;;;;;;2.51;100.00;96726.28;5034873;28;20197;-62
2022/12/07 03:59:56;;;;;;;12.93;11.63;;;;;;;2.65;100.00;96732.47;5052850;28;20315;-60
2022/12/07 04:02:22;;;;;;;12.40;11.10;;;;;;;2.55;100.00;96727.56;5052670;28;20532;-61
2022/12/07 04:04:47;;;;;;;12.90;11.50;;;;;;;2.51;100.00;96724.50;5052195;28;20192;-61
2022/12/07 04:07:13;;;;;;;14.07;11.60;;;;;;;2.64;100.00;96723.09;5052775;28;20300;-61
2022/12/07 04:09:38;;;;;;;13.27;11.80;;;;;;;2.64;100.00;96725.66;5053057;28;20537;-61
2022/12/07 04:12:04;;;;;;;12.73;11.53;;;;;;;2.61;100.00;96731.22;5052572;28;20227;-60
2022/12/07 04:14:29;;;;;;;12.40;11.20;;;;;;;2.52;100.00;96720.13;5053076;28;20177;-61
2022/12/07 04:16:57;;;;;;;14.20;12.20;;;;;;;2.57;100.00;96717.81;5052549;28;20243;-61
2022/12/07 04:19:26;;;;;;;13.33;11.83;;;;;;;2.58;100.00;96713.44;5044606;28;21033;-59
2022/12/07 04:21:54;;;;;;;13.50;12.17;;;;;;;2.47;100.00;96712.09;5052662;28;20178;-60
2022/12/07 04:24:20;;;;;;;14.23;12.53;;;;;;;2.44;100.00;96712.47;5052737;28;20178;-61
2022/12/07 04:26:46;;;;;;;13.87;12.10;;;;;;;2.43;100.00;96718.63;5052320;28;20188;-60
2022/12/07 04:29:12;;;;;;;15.43;12.83;;;;;;;2.36;100.00;96712.53;5051485;28;20206;-60
2022/12/07 04:31:39;;;;;;;13.83;12.33;;;;;;;2.39;100.00;96718.19;5052246;28;20184;-60
2022/12/07 04:34:05;;;;;;;13.27;11.73;;;;;;;2.29;100.00;96709.03;5052261;28;20249;-60
2022/12/07 04:36:31;;;;;;;13.43;11.80;;;;;;;2.30;100.00;96703.72;5050043;28;20234;-61
2022/12/07 04:38:57;;;;;;;13.87;12.30;;;;;;;2.37;100.00;96701.22;5051930;28;20209;-62
2022/12/07 04:41:27;;;;;;;12.67;11.37;;;;;;;2.38;100.00;96689.91;5052327;28;20178;-60
2022/12/07 04:43:55;;;;;;;12.07;10.83;;;;;;;2.24;100.00;96688.91;5052230;28;20174;-59
2022/12/07 04:46:23;;;;;;;12.67;10.37;;;;;;;2.22;100.00;96690.06;5050390;28;20185;-60
2022/12/07 04:48:48;;;;;;;11.70;10.47;;;;;;;2.15;100.00;96687.38;5052238;28;20554;-61
2022/12/07 04:51:18;;;;;;;10.90;9.83;;;;;;;2.18;100.00;96686.22;5052466;28;20249;-61
2022/12/07 04:53:44;;;;;;;10.60;9.50;;;;;;;2.28;100.00;96681.59;5052200;28;20257;-61
2022/12/07 04:56:09;;;;;;;10.10;8.97;;;;;;;2.21;100.00;96691.84;5052089;28;20202;-61
2022/12/07 04:58:34;;;;;;;10.67;9.73;;;;;;;2.23;100.00;96687.28;5051638;28;20289;-61
2022/12/07 05:01:00;;;;;;;9.10;8.30;;;;;;;2.26;100.00;96686.94;5050611;28;20178;-61
2022/12/07 05:03:25;;;;;;;8.53;7.73;;;;;;;2.32;100.00;96678.47;5050950;28;20182;-62
2022/12/07 05:05:51;;;;;;;7.80;7.10;;;;;;;2.41;100.00;96677.41;5052133;28;20186;-61
2022/12/07 05:08:16;;;;;;;7.63;7.03;;;;;;;2.42;100.00;96673.84;5051858;28;20678;-61
2022/12/07 05:10:41;;;;;;;8.53;7.73;;;;;;;2.47;100.00;96676.69;5052437;28;20178;-61
2022/12/07 05:13:07;;;;;;;8.67;7.60;;;;;;;2.53;100.00;96675.19;5052490;28;20194;-61
2022/12/07 05:15:32;;;;;;;7.40;6.77;;;;;;;2.50;98.99;96680.72;5053406;28;20170;-61
2022/12/07 05:17:58;;;;;;;6.93;6.37;;;;;;;2.55;97.82;96682.78;5053590;28;20565;-60
2022/12/07 05:20:23;;;;;;;7.77;7.10;;;;;;;2.54;97.19;96687.13;5053275;28;20174;-60
2022/12/07 05:22:49;;;;;;;8.10;7.50;;;;;;;2.48;97.77;96685.25;5053291;28;20186;-61
2022/12/07 05:25:14;;;;;;;7.37;6.77;;;;;;;2.55;96.57;96682.78;5052652;28;20189;-60
2022/12/07 05:27:40;;;;;;;8.13;7.33;;;;;;;2.57;95.07;96681.59;5051687;28;20678;-62
2022/12/07 05:30:05;;;;;;;7.63;7.03;;;;;;;2.55;94.99;96685.34;5051439;28;20185;-61
2022/12/07 05:32:31;;;;;;;8.23;7.63;;;;;;;2.31;97.40;96691.59;5051561;28;20355;-62
2022/12/07 05:34:56;;;;;;;7.70;7.00;;;;;;;2.08;100.00;96697.63;5029157;28;20182;-60
2022/12/07 05:37:22;;;;;;;7.83;7.13;;;;;;;2.20;100.00;96700.56;5031728;28;20237;-61
2022/12/07 05:39:47;;;;;;;9.60;8.70;;;;;;;2.41;100.00;96694.72;5031384;28;20266;-61
2022/12/07 05:42:13;;;;;;;8.77;7.73;;;;;;;1.98;100.00;96696.25;5032333;28;20194;-57
2022/12/07 05:44:43;;;;;;;9.00;8.20;;;;;;;1.79;100.00;96702.69;5032471;28;20213;-61
2022/12/07 05:47:09;;;;;;;8.20;7.40;;;;;;;2.00;100.00;96699.47;5029872;28;20198;-60
2022/12/07 05:49:35;;;;;;;7.30;6.63;;;;;;;1.86;100.00;96711.38;5032038;28;20207;-61
2022/12/07 05:52:00;;;;;;;8.43;7.57;;;;;;;1.74;100.00;96717.91;5026244;28;20593;-61
2022/12/07 05:54:26;;;;;;;9.30;8.30;;;;;;;1.83;100.00;96716.91;5032098;28;20174;-60
2022/12/07 05:56:51;;;;;;;9.27;8.33;;;;;;;1.89;100.00;96720.56;5031866;28;20182;-62
2022/12/07 05:59:23;;;;;;;11.17;9.13;;;;;;;1.67;100.00;96724.78;5031209;28;20668;-60
2022/12/07 06:02:01;;;;;;;12.27;10.63;;;;;;;1.39;100.00;96724.47;5031313;28;20182;-61
2022/12/07 06:04:29;;;;;;;12.00;10.43;;;;;;;1.32;100.00;96720.16;5030641;28;20546;-60
2022/12/07 06:06:55;;;;;;;12.60;10.53;;;;;;;1.33;100.00;96719.19;5031375;28;20214;-60
2022/12/07 06:09:22;;;;;;;11.83;9.83;;;;;;;1.46;100.00;96715.03;5031324;28;20202;-60
2022/12/07 06:14:32;;;;;;;12.23;10.80;;;;;;;1.68;100.00;96711.66;5034460;28;20197;-60
2022/12/07 06:16:58;;;;;;;12.47;10.97;;;;;;;1.81;100.00;96710.28;5034659;28;20174;-59
2022/12/07 06:19:24;;;;;;;12.03;10.30;;;;;;;1.59;100.00;96715.28;5034832;28;20610;-60
2022/12/07 06:21:49;;;;;;;15.17;12.93;;;;;;;1.72;100.00;96717.31;5034557;28;20261;-60
2022/12/07 06:24:16;;;;;;;14.53;11.73;;;;;;;1.68;100.00;96722.00;5034777;28;20292;-62
2022/12/07 06:26:42;;;;;;;12.03;10.73;;;;;;;1.71;100.00;96720.88;5034600;28;20178;-59
2022/12/07 06:29:08;;;;;;;12.53;11.10;;;;;;;1.69;100.00;96715.06;5034442;28;20206;-55
2022/12/07 06:31:34;;;;;;;12.43;10.93;;;;;;;1.56;100.00;96714.84;5034670;28;20229;-59
2022/12/07 06:34:05;;;;;;;13.00;11.60;;;;;;;1.72;100.00;96719.09;5034815;28;20179;-59
2022/12/07 06:36:30;;;;;;;11.23;10.07;;;;;;;1.81;100.00;96716.25;5047195;28;20242;-57
2022/12/07 06:38:56;;;;;;;12.60;10.83;;;;;;;1.72;100.00;96712.16;5054538;28;20217;-55
2022/12/07 06:41:22;;;;;;;11.00;9.90;;;;;;;1.77;100.00;96720.19;5054613;28;20251;-57
2022/12/07 06:43:47;;;;;;;11.30;9.93;;;;;;;1.90;100.00;96722.97;5054222;28;20175;-58
2022/12/07 06:46:14;;;;;;;10.37;9.23;;;;;;;1.86;100.00;96723.47;5052474;28;20190;-56
2022/12/07 06:48:40;;;;;;;11.03;9.80;;;;;;;1.88;100.00;96718.97;5054468;28;20206;-57
2022/12/07 06:51:05;;;;;;;10.33;9.33;;;;;;;1.86;100.00;96720.91;5053945;28;20193;-58
2022/12/07 06:53:30;;;;;;;11.63;10.50;;;;;;;1.89;100.00;96715.41;5053860;28;20551;-53
2022/12/07 06:55:56;;;;;;;15.53;10.33;;;;;;;1.91;100.00;96710.84;5054039;28;20213;-56
2022/12/07 06:58:21;;;;;;;13.27;9.20;;;;;;;1.95;100.00;96717.28;5053904;28;20209;-56
2022/12/07 07:00:49;;;;;;;11.23;9.73;;;;;;;2.15;100.00;96728.75;5053518;28;20189;-56
2022/12/07 07:03:15;;;;;;;10.20;9.10;;;;;;;1.97;100.00;96741.16;5051974;28;20178;-58
2022/12/07 07:05:41;;;;;;;10.57;8.80;;;;;;;2.05;100.00;96741.13;5052823;28;20197;-58
2022/12/07 07:08:07;;;;;;;10.47;9.33;;;;;;;1.90;100.00;96735.88;5053487;28;20206;-57
2022/12/07 07:10:33;;;;;;;9.80;8.80;;;;;;;1.88;100.00;96735.28;5053872;28;20170;-59
2022/12/07 07:12:58;;;;;;;12.27;9.60;;;;;;;2.13;100.00;96737.63;5053440;28;20541;-59
2022/12/07 07:15:24;;;;;;;10.23;9.23;;;;;;;2.05;100.00;96735.94;5058435;28;20174;-59
2022/12/07 07:17:49;;;;;;;10.63;9.53;;;;;;;1.99;100.00;96737.44;5052541;28;20300;-59
2022/12/07 07:20:15;;;;;;;46.40;43.57;;;;;;;1.95;100.00;96732.81;5053906;28;20190;-59
2022/12/07 07:22:40;;;;;;;11.40;10.23;;;;;;;2.02;100.00;96738.84;5053743;28;20186;-58
2022/12/07 07:25:06;;;;;;;11.80;9.00;;;;;;;2.08;100.00;96740.75;5053420;28;20545;-58
2022/12/07 07:27:32;;;;;;;10.50;9.50;;;;;;;2.17;100.00;96739.72;5053193;28;20289;-59
2022/12/07 07:29:57;;;;;;;9.67;8.77;;;;;;;2.18;100.00;96743.88;5053474;28;20182;-59
2022/12/07 07:32:22;;;;;;;9.93;9.00;;;;;;;2.17;100.00;96739.72;5053399;28;20607;-64
2022/12/07 07:34:48;;;;;;;10.50;9.40;;;;;;;2.01;100.00;96738.06;5051307;28;20185;-64
2022/12/07 07:37:13;;;;;;;10.60;9.53;;;;;;;1.95;100.00;96743.91;5033476;28;20222;-60
2022/12/07 07:39:39;;;;;;;10.87;9.87;;;;;;;2.18;100.00;96745.66;5033811;28;20199;-61
2022/12/07 07:42:05;;;;;;;11.23;10.13;;;;;;;2.12;100.00;96749.75;5033293;28;20175;-60
2022/12/07 07:44:30;;;;;;;11.73;10.63;;;;;;;2.26;100.00;96751.59;5032922;28;20174;-58
2022/12/07 07:46:55;;;;;;;13.80;12.57;;;;;;;2.29;100.00;96746.06;5031874;28;20325;-59
2022/12/07 07:49:21;;;;;;;10.57;9.40;;;;;;;2.40;100.00;96752.56;5033103;28;20217;-56
2022/12/07 07:51:46;;;;;;;10.53;9.40;;;;;;;2.37;100.00;96756.34;5033300;28;20175;-56
2022/12/07 07:54:12;;;;;;;9.57;8.23;;;;;;;2.29;100.00;96758.19;5033091;28;20200;-55
2022/12/07 07:56:37;;;;;;;10.20;9.13;;;;;;;2.51;100.00;96760.72;5032924;28;20297;-60
2022/12/07 07:59:02;;;;;;;10.90;9.57;;;;;;;2.30;100.00;96755.41;5032800;28;20214;-58
2022/12/07 08:01:28;;;;;;;10.40;9.27;;;;;;;2.45;100.00;96758.06;5032938;28;20182;-60
2022/12/07 08:03:53;;;;;;;10.57;9.57;;;;;;;2.50;100.00;96761.72;5031587;28;20282;-57
2022/12/07 08:06:19;;;;;;;10.53;9.33;;;;;;;2.37;100.00;96755.53;5011874;28;20182;-58
2022/12/07 08:08:44;;;;;;;11.33;10.00;;;;;;;2.55;100.00;96757.78;5025857;28;20220;-59
2022/12/07 08:11:10;;;;;;;10.20;8.97;;;;;;;2.46;100.00;96750.09;5029814;28;20194;-57
2022/12/07 08:13:36;;;;;;;10.93;9.83;;;;;;;2.44;100.00;96751.28;5026348;28;20261;-58
2022/12/07 08:16:08;;;;;;;13.90;12.60;;;;;;;2.54;100.00;96756.19;5030007;28;20202;-58
2022/12/07 08:18:40;;;;;;;14.77;13.37;;;;;;;2.51;100.00;96757.31;5032208;28;20284;-55
2022/12/07 08:21:06;;;;;;;17.53;15.93;;;;;;;2.60;100.00;96764.03;5032252;28;20194;-57
2022/12/07 08:23:33;;;;;;;14.20;12.77;;;;;;;2.71;100.00;96762.78;5032163;28;20214;-60
2022/12/07 08:26:04;;;;;;;10.40;9.30;;;;;;;2.87;100.00;96760.03;5032161;28;20506;-57
2022/12/07 08:28:29;;;;;;;10.43;9.40;;;;;;;2.67;100.00;96764.13;5016550;28;20286;-58
2022/12/07 08:31:04;;;;;;;13.97;12.57;;;;;;;2.79;100.00;96762.69;5012598;28;20716;-57
2022/12/07 08:33:30;;;;;;;10.83;9.17;;;;;;;2.70;100.00;96766.34;5012673;28;20233;-59
2022/12/07 08:36:04;;;;;;;11.13;10.03;;;;;;;2.78;100.00;96769.69;5030363;28;20264;-60
2022/12/07 08:38:29;;;;;;;10.97;9.53;;;;;;;2.89;100.00;96765.84;5052252;28;20213;-61
2022/12/07 08:40:58;;;;;;;12.80;11.63;;;;;;;2.87;100.00;96771.19;5052452;28;20166;-59
2022/12/07 08:43:24;;;;;;;14.70;13.40;;;;;;;2.95;100.00;96766.91;5052672;28;20558;-58
2022/12/07 08:46:09;;;;;;;14.03;12.73;;;;;;;3.14;100.00;96771.53;5050125;28;20186;-56
2022/12/07 08:48:38;;;;;;;13.57;12.10;;;;;;;3.16;100.00;96766.97;5048241;28;20274;-55
2022/12/07 08:51:04;;;;;;;14.27;13.07;;;;;;;3.03;100.00;96767.59;5048666;28;20185;-56
2022/12/07 08:53:30;;;;;;;12.53;11.20;;;;;;;3.09;100.00;96768.66;5052422;28;20162;-55
2022/12/07 08:55:57;;;;;;;11.47;10.33;;;;;;;3.26;100.00;96776.06;5052431;28;20237;-59
2022/12/07 08:58:23;;;;;;;10.83;9.83;;;;;;;3.27;100.00;96776.88;5051702;28;20213;-55
2022/12/07 09:00:48;;;;;;;11.80;10.60;;;;;;;3.16;100.00;96770.38;5052678;28;20253;-58
2022/12/07 09:03:14;;;;;;;10.60;9.20;;;;;;;3.41;100.00;96772.63;5050645;28;20224;-59
2022/12/07 09:05:39;;;;;;;12.40;11.20;;;;;;;3.57;100.00;96767.25;5051236;28;20190;-61
2022/12/07 09:08:06;;;;;;;12.77;11.77;;;;;;;3.52;100.00;96770.38;5051809;28;20197;-58
2022/12/07 09:10:31;;;;;;;10.33;9.43;;;;;;;3.58;100.00;96771.44;5052683;28;20531;-55
2022/12/07 09:13:00;;;;;;;11.60;10.57;;;;;;;3.69;100.00;96761.41;5052098;28;20163;-58
2022/12/07 09:15:30;;;;;;;12.33;11.13;;;;;;;3.93;98.83;96762.03;5052442;28;20166;-58
2022/12/07 09:17:55;;;;;;;10.47;9.47;;;;;;;3.67;100.00;96762.59;5051446;28;20213;-58
2022/12/07 09:20:21;;;;;;;10.50;9.33;;;;;;;3.73;100.00;96772.22;5052086;28;20539;-60
2022/12/07 09:22:47;;;;;;;11.83;10.80;;;;;;;4.08;98.54;96767.94;5052385;28;20223;-59
2022/12/07 09:25:12;;;;;;;19.83;18.40;;;;;;;3.94;98.59;96771.41;5052027;28;20635;-59
2022/12/07 09:27:38;;;;;;;17.33;16.03;;;;;;;4.11;97.21;96770.19;5051983;28;20198;-59
2022/12/07 09:30:05;;;;;;;18.90;17.57;;;;;;;3.97;97.13;96768.44;5052101;28;20300;-59
2022/12/07 09:32:30;;;;;;;14.33;13.23;;;;;;;4.07;98.27;96763.75;5051749;28;20184;-57
2022/12/07 09:34:56;;;;;;;17.20;15.77;;;;;;;4.11;97.57;96767.59;5047819;28;20269;-59
2022/12/07 09:37:22;;;;;;;16.07;14.87;;;;;;;3.91;99.44;96766.59;5032091;28;20217;-60
2022/12/07 09:39:47;;;;;;;19.27;17.77;;;;;;;3.97;97.66;96763.25;5032112;28;20600;-59
2022/12/07 09:42:36;;;;;;;13.43;11.97;;;;;;;4.14;95.56;96768.00;5031875;28;20190;-61
2022/12/07 09:45:04;;;;;;;12.77;11.67;;;;;;;3.89;97.11;96766.00;5013510;28;20193;-58
2022/12/07 09:47:30;;;;;;;12.20;11.07;;;;;;;4.18;95.66;96758.84;5032565;28;20260;-59
2022/12/07 09:50:04;;;;;;;11.77;10.73;;;;;;;4.13;96.25;96760.41;5035507;28;20163;-59
2022/12/07 09:52:30;;;;;;;10.37;9.47;;;;;;;4.47;94.33;96752.69;5018438;28;20519;-59
2022/12/07 09:54:55;;;;;;;9.67;8.87;;;;;;;4.35;93.14;96758.59;5035947;28;20163;-59
2022/12/07 09:57:31;;;;;;;11.17;8.00;;;;;;;4.48;93.47;96750.91;5036037;28;20301;-58
2022/12/07 10:00:01;;;;;;;10.70;9.60;;;;;;;4.47;92.26;96746.72;5032245;28;20228;-59
2022/12/07 10:02:35;;;;;;;12.30;11.37;;;;;;;4.46;92.39;96756.28;5034147;28;20170;-55
2022/12/07 10:05:03;;;;;;;9.50;8.60;;;;;;;4.59;92.62;96746.00;5035113;28;20200;-59
2022/12/07 10:07:29;;;;;;;8.70;7.90;;;;;;;4.67;91.84;96747.66;5035269;28;20194;-60
2022/12/07 10:09:54;;;;;;;8.53;7.80;;;;;;;4.70;91.38;96741.28;5035382;28;20171;-58
2022/12/07 10:12:20;;;;;;;9.83;8.93;;;;;;;4.66;91.39;96740.06;5035431;28;20246;-58
2022/12/07 10:14:59;;;;;;;9.27;8.43;;;;;;;4.48;92.79;96733.56;5035521;28;20242;-58
2022/12/07 10:17:34;;;;;;;9.23;8.43;;;;;;;4.61;92.67;96732.84;5034824;28;20225;-56
2022/12/07 10:20:22;;;;;;;10.93;10.03;;;;;;;4.89;91.48;96720.63;5035483;28;20162;-59
2022/12/07 10:23:05;;;;;;;23.57;13.07;;;;;;;4.68;91.97;96730.28;5035184;28;20186;-56
2022/12/07 10:25:36;;;;;;;13.43;12.40;;;;;;;4.74;90.18;96726.91;5035054;28;20189;-60
2022/12/07 10:28:07;;;;;;;9.93;9.17;;;;;;;4.94;87.85;96718.25;5034880;28;20754;-56
2022/12/07 10:30:46;;;;;;;9.60;8.90;;;;;;;5.05;87.85;96722.09;5035526;28;20549;-59
2022/12/07 10:33:50;;;;;;;9.60;8.90;;;;;;;4.93;87.48;96721.03;5035056;28;20201;-62
2022/12/07 10:36:18;;;;;;;11.43;10.63;;;;;;;4.73;87.69;96720.94;5010838;28;20230;-62
2022/12/07 10:38:49;;;;;;;12.63;11.53;;;;;;;5.08;86.17;96721.69;5054977;28;20560;-60
2022/12/07 10:41:15;;;;;;;13.03;12.10;;;;;;;4.89;87.20;96725.81;5054604;28;20182;-60
2022/12/07 10:43:48;;;;;;;11.67;10.87;;;;;;;4.95;87.05;96719.06;5052857;28;20191;-60
2022/12/07 10:46:22;;;;;;;13.23;12.23;;;;;;;4.82;87.51;96717.19;5049181;28;20190;-60
2022/12/07 10:49:05;;;;;;;9.87;9.17;;;;;;;4.90;87.71;96716.25;5054322;28;20264;-58
2022/12/07 10:51:43;;;;;;;14.63;13.50;;;;;;;4.99;87.07;96720.28;5054792;28;20170;-65
2022/12/07 10:54:16;;;;;;;11.90;11.00;;;;;;;4.92;88.31;96711.63;5054958;28;20172;-60
2022/12/07 10:56:54;;;;;;;15.37;13.90;;;;;;;4.83;88.93;96703.22;5054498;28;20166;-61
2022/12/07 10:59:36;;;;;;;12.07;11.27;;;;;;;4.99;87.41;96699.50;5048386;28;20213;-60
2022/12/07 11:02:33;;;;;;;13.50;12.50;;;;;;;4.91;87.38;96700.44;5034381;28;20628;-59
2022/12/07 11:05:22;;;;;;;10.67;9.97;;;;;;;4.97;86.54;96697.06;5046848;28;20245;-61
2022/12/07 11:08:09;;;;;;;6.20;5.57;;;;;;;4.55;89.28;96705.84;5054035;28;20563;-61
2022/12/07 11:10:41;;;;;;;6.57;6.10;;;;;;;4.70;89.01;96695.34;5049149;28;20219;-60
2022/12/07 11:13:21;;;;;;;8.00;7.40;;;;;;;4.74;88.32;96693.16;5035683;28;20166;-60
2022/12/07 11:16:16;;;;;;;13.77;12.87;;;;;;;4.57;90.24;96693.47;5053879;28;20227;-59
2022/12/07 11:19:16;;;;;;;14.07;13.17;;;;;;;4.63;90.93;96685.91;5053418;28;20210;-59
2022/12/07 11:22:03;;;;;;;11.67;10.87;;;;;;;4.53;91.88;96684.47;5053922;28;20546;-59
2022/12/07 11:24:49;;;;;;;13.00;12.10;;;;;;;4.67;90.24;96680.16;5054198;28;20173;-61
2022/12/07 11:27:21;;;;;;;13.73;12.87;;;;;;;4.69;90.75;96678.16;5053740;28;20565;-60
2022/12/07 11:30:00;;;;;;;10.63;9.80;;;;;;;4.69;90.53;96680.75;5053508;28;20174;-60
2022/12/07 11:32:52;;;;;;;12.53;11.57;;;;;;;4.51;91.70;96680.50;5053783;28;20185;-60
2022/12/07 11:35:20;;;;;;;11.37;10.60;;;;;;;4.52;91.79;96667.28;5047459;28;20224;-60